sensor_id;sensor_type;location;lat;lon;timestamp;pressure;altitude;pressure_sealevel;temperature;humidity
70909;BME280;58554;52.006;5.926;2022-08-30T00:01:31;101308.69;;;18.80;57.82
70909;BME280;58554;52.006;5.926;2022-08-30T00:03:59;101311.25;;;18.81;57.84
70909;BME280;58554;52.006;5.926;2022-08-30T00:06:27;101311.47;;;18.78;57.67
70909;BME280;58554;52.006;5.926;2022-08-30T00:08:57;101319.91;;;18.74;58.04
70909;BME280;58554;52.006;5.926;2022-08-30T00:11:26;101320.25;;;18.69;58.04
70909;BME280;58554;52.006;5.926;2022-08-30T00:13:56;101317.72;;;18.68;58.14
70909;BME280;58554;52.006;5.926;2022-08-30T00:16:23;101317.81;;;18.66;58.04
70909;BME280;58554;52.006;5.926;2022-08-30T00:18:50;101316.25;;;18.64;58.59
70909;BME280;58554;52.006;5.926;2022-08-30T00:21:17;101313.34;;;18.67;58.32
70909;BME280;58554;52.006;5.926;2022-08-30T00:23:44;101307.97;;;18.67;58.34
70909;BME280;58554;52.006;5.926;2022-08-30T00:26:13;101306.38;;;18.64;58.22
70909;BME280;58554;52.006;5.926;2022-08-30T00:28:39;101307.63;;;18.60;58.37
70909;BME280;58554;52.006;5.926;2022-08-30T00:31:06;101313.34;;;18.55;58.42
70909;BME280;58554;52.006;5.926;2022-08-30T00:33:32;101306.66;;;18.50;58.66
70909;BME280;58554;52.006;5.926;2022-08-30T00:35:59;101305.09;;;18.47;58.96
70909;BME280;58554;52.006;5.926;2022-08-30T00:38:26;101307.19;;;18.44;58.76
70909;BME280;58554;52.006;5.926;2022-08-30T00:40:52;101300.97;;;18.43;58.88
70909;BME280;58554;52.006;5.926;2022-08-30T00:43:24;101296.47;;;18.44;58.99
70909;BME280;58554;52.006;5.926;2022-08-30T00:45:53;101304.66;;;18.42;59.08
70909;BME280;58554;52.006;5.926;2022-08-30T00:48:19;101300.53;;;18.38;59.31
70909;BME280;58554;52.006;5.926;2022-08-30T00:50:48;101295.41;;;18.35;59.28
70909;BME280;58554;52.006;5.926;2022-08-30T00:53:23;101302.84;;;18.31;59.41
70909;BME280;58554;52.006;5.926;2022-08-30T00:55:53;101299.91;;;18.34;59.13
70909;BME280;58554;52.006;5.926;2022-08-30T00:58:27;101306.25;;;18.33;59.44
70909;BME280;58554;52.006;5.926;2022-08-30T01:00:59;101304.66;;;18.31;59.49
70909;BME280;58554;52.006;5.926;2022-08-30T01:03:27;101308.22;;;18.31;59.51
70909;BME280;58554;52.006;5.926;2022-08-30T01:05:55;101309.16;;;18.30;59.53
70909;BME280;58554;52.006;5.926;2022-08-30T01:08:23;101314.63;;;18.29;59.48
70909;BME280;58554;52.006;5.926;2022-08-30T01:10:52;101309.28;;;18.29;59.83
70909;BME280;58554;52.006;5.926;2022-08-30T01:13:24;101306.50;;;18.30;59.77
70909;BME280;58554;52.006;5.926;2022-08-30T01:15:52;101307.81;;;18.36;59.64
70909;BME280;58554;52.006;5.926;2022-08-30T01:18:20;101310.50;;;18.36;59.40
70909;BME280;58554;52.006;5.926;2022-08-30T01:20:51;101314.88;;;18.37;59.69
70909;BME280;58554;52.006;5.926;2022-08-30T01:23:29;101321.06;;;18.37;59.71
70909;BME280;58554;52.006;5.926;2022-08-30T01:25:59;101320.22;;;18.37;59.50
70909;BME280;58554;52.006;5.926;2022-08-30T01:28:29;101319.25;;;18.38;59.72
70909;BME280;58554;52.006;5.926;2022-08-30T01:30:56;101319.00;;;18.41;59.52
70909;BME280;58554;52.006;5.926;2022-08-30T01:33:24;101321.56;;;18.42;59.32
70909;BME280;58554;52.006;5.926;2022-08-30T01:35:52;101317.16;;;18.41;59.61
70909;BME280;58554;52.006;5.926;2022-08-30T01:38:23;101314.13;;;18.46;59.61
70909;BME280;58554;52.006;5.926;2022-08-30T01:40:59;101319.22;;;18.49;59.38
70909;BME280;58554;52.006;5.926;2022-08-30T01:43:34;101325.41;;;18.50;59.46
70909;BME280;58554;52.006;5.926;2022-08-30T01:46:01;101326.78;;;18.44;59.42
70909;BME280;58554;52.006;5.926;2022-08-30T01:48:28;101322.41;;;18.43;59.73
70909;BME280;58554;52.006;5.926;2022-08-30T01:50:55;101327.53;;;18.46;59.27
70909;BME280;58554;52.006;5.926;2022-08-30T01:53:21;101326.66;;;18.46;59.38
70909;BME280;58554;52.006;5.926;2022-08-30T01:55:50;101325.69;;;18.47;59.25
70909;BME280;58554;52.006;5.926;2022-08-30T01:58:17;101326.41;;;18.49;59.26
70909;BME280;58554;52.006;5.926;2022-08-30T02:00:43;101320.22;;;18.48;59.25
70909;BME280;58554;52.006;5.926;2022-08-30T02:03:10;101318.50;;;18.47;59.53
70909;BME280;58554;52.006;5.926;2022-08-30T02:05:36;101323.84;;;18.47;59.28
70909;BME280;58554;52.006;5.926;2022-08-30T02:08:03;101324.84;;;18.46;59.23
70909;BME280;58554;52.006;5.926;2022-08-30T02:10:30;101327.53;;;18.46;59.38
70909;BME280;58554;52.006;5.926;2022-08-30T02:13:00;101326.53;;;18.47;59.48
70909;BME280;58554;52.006;5.926;2022-08-30T02:15:26;101334.19;;;18.52;59.19
70909;BME280;58554;52.006;5.926;2022-08-30T02:17:53;101324.19;;;18.54;59.19
70909;BME280;58554;52.006;5.926;2022-08-30T02:20:20;101325.31;;;18.51;59.08
70909;BME280;58554;52.006;5.926;2022-08-30T02:22:46;101316.94;;;18.45;59.47
70909;BME280;58554;52.006;5.926;2022-08-30T02:25:13;101316.19;;;18.42;59.04
70909;BME280;58554;52.006;5.926;2022-08-30T02:27:39;101318.03;;;18.42;59.57
70909;BME280;58554;52.006;5.926;2022-08-30T02:30:10;101321.56;;;18.42;59.28
70909;BME280;58554;52.006;5.926;2022-08-30T02:32:38;101316.09;;;18.44;59.23
70909;BME280;58554;52.006;5.926;2022-08-30T02:35:05;101315.94;;;18.46;59.24
70909;BME280;58554;52.006;5.926;2022-08-30T02:37:33;101311.06;;;18.39;59.29
70909;BME280;58554;52.006;5.926;2022-08-30T02:39:59;101310.50;;;18.36;59.29
70909;BME280;58554;52.006;5.926;2022-08-30T02:42:25;101309.06;;;18.32;59.37
70909;BME280;58554;52.006;5.926;2022-08-30T02:44:52;101311.97;;;18.29;59.75
70909;BME280;58554;52.006;5.926;2022-08-30T02:47:21;101303.34;;;18.25;59.35
70909;BME280;58554;52.006;5.926;2022-08-30T02:49:47;101300.78;;;18.24;59.48
70909;BME280;58554;52.006;5.926;2022-08-30T02:52:14;101314.19;;;18.24;59.58
70909;BME280;58554;52.006;5.926;2022-08-30T02:54:40;101307.97;;;18.23;59.65
70909;BME280;58554;52.006;5.926;2022-08-30T02:57:06;101311.63;;;18.22;59.43
70909;BME280;58554;52.006;5.926;2022-08-30T02:59:33;101307.25;;;18.21;59.50
70909;BME280;58554;52.006;5.926;2022-08-30T03:02:00;101302.00;;;18.19;59.70
70909;BME280;58554;52.006;5.926;2022-08-30T03:04:29;101299.34;;;18.19;59.48
70909;BME280;58554;52.006;5.926;2022-08-30T03:06:55;101299.56;;;18.16;59.50
70909;BME280;58554;52.006;5.926;2022-08-30T03:09:22;101300.44;;;18.06;59.79
70909;BME280;58554;52.006;5.926;2022-08-30T03:11:48;101304.47;;;18.00;59.96
70909;BME280;58554;52.006;5.926;2022-08-30T03:14:15;101304.97;;;17.94;60.02
70909;BME280;58554;52.006;5.926;2022-08-30T03:16:41;101300.56;;;17.93;60.23
70909;BME280;58554;52.006;5.926;2022-08-30T03:19:07;101297.28;;;17.89;60.07
70909;BME280;58554;52.006;5.926;2022-08-30T03:21:37;101299.38;;;17.86;60.22
70909;BME280;58554;52.006;5.926;2022-08-30T03:24:05;101295.97;;;17.84;60.31
70909;BME280;58554;52.006;5.926;2022-08-30T03:26:32;101293.16;;;17.85;60.33
70909;BME280;58554;52.006;5.926;2022-08-30T03:28:58;101297.66;;;17.85;60.28
70909;BME280;58554;52.006;5.926;2022-08-30T03:31:25;101291.59;;;17.83;60.31
70909;BME280;58554;52.006;5.926;2022-08-30T03:33:51;101293.16;;;17.85;60.14
70909;BME280;58554;52.006;5.926;2022-08-30T03:36:18;101301.31;;;17.84;60.23
70909;BME280;58554;52.006;5.926;2022-08-30T03:38:47;101298.16;;;17.78;60.34
70909;BME280;58554;52.006;5.926;2022-08-30T03:41:13;101289.47;;;17.75;60.36
70909;BME280;58554;52.006;5.926;2022-08-30T03:43:39;101282.44;;;17.74;60.54
70909;BME280;58554;52.006;5.926;2022-08-30T03:46:06;101286.06;;;17.73;60.28
70909;BME280;58554;52.006;5.926;2022-08-30T03:48:32;101284.66;;;17.69;60.60
70909;BME280;58554;52.006;5.926;2022-08-30T03:50:58;101283.53;;;17.60;60.67
70909;BME280;58554;52.006;5.926;2022-08-30T03:53:25;101290.81;;;17.58;60.80
70909;BME280;58554;52.006;5.926;2022-08-30T03:55:54;101291.44;;;17.61;60.96
70909;BME280;58554;52.006;5.926;2022-08-30T03:58:21;101287.91;;;17.61;60.70
70909;BME280;58554;52.006;5.926;2022-08-30T04:00:48;101304.19;;;17.58;60.88
70909;BME280;58554;52.006;5.926;2022-08-30T04:03:15;101299.22;;;17.53;60.98
70909;BME280;58554;52.006;5.926;2022-08-30T04:05:41;101301.25;;;17.50;60.84
70909;BME280;58554;52.006;5.926;2022-08-30T04:08:08;101305.66;;;17.51;60.99
70909;BME280;58554;52.006;5.926;2022-08-30T04:10:34;101306.59;;;17.50;61.25
70909;BME280;58554;52.006;5.926;2022-08-30T04:13:04;101301.25;;;17.50;60.70
70909;BME280;58554;52.006;5.926;2022-08-30T04:15:30;101305.75;;;17.49;60.89
70909;BME280;58554;52.006;5.926;2022-08-30T04:17:56;101308.31;;;17.51;60.92
70909;BME280;58554;52.006;5.926;2022-08-30T04:20:23;101306.38;;;17.53;60.73
70909;BME280;58554;52.006;5.926;2022-08-30T04:22:49;101301.75;;;17.55;60.71
70909;BME280;58554;52.006;5.926;2022-08-30T04:25:16;101306.28;;;17.54;60.54
70909;BME280;58554;52.006;5.926;2022-08-30T04:27:44;101310.75;;;17.43;60.80
70909;BME280;58554;52.006;5.926;2022-08-30T04:30:15;101314.97;;;17.34;61.11
70909;BME280;58554;52.006;5.926;2022-08-30T04:32:43;101312.69;;;17.29;60.81
70909;BME280;58554;52.006;5.926;2022-08-30T04:35:11;101309.59;;;17.23;61.10
70909;BME280;58554;52.006;5.926;2022-08-30T04:37:39;101306.19;;;17.20;61.25
70909;BME280;58554;52.006;5.926;2022-08-30T04:40:08;101311.06;;;17.15;61.31
70909;BME280;58554;52.006;5.926;2022-08-30T04:42:36;101312.88;;;17.15;61.16
70909;BME280;58554;52.006;5.926;2022-08-30T04:45:04;101311.25;;;17.12;61.34
70909;BME280;58554;52.006;5.926;2022-08-30T04:47:36;101313.84;;;17.14;61.18
70909;BME280;58554;52.006;5.926;2022-08-30T04:50:05;101314.19;;;17.09;61.05
70909;BME280;58554;52.006;5.926;2022-08-30T04:52:32;101317.56;;;17.00;61.25
70909;BME280;58554;52.006;5.926;2022-08-30T04:54:58;101323.50;;;16.92;61.28
70909;BME280;58554;52.006;5.926;2022-08-30T04:57:26;101323.84;;;16.88;61.33
70909;BME280;58554;52.006;5.926;2022-08-30T04:59:53;101328.31;;;16.87;61.21
70909;BME280;58554;52.006;5.926;2022-08-30T05:02:20;101336.31;;;16.87;61.18
70909;BME280;58554;52.006;5.926;2022-08-30T05:04:50;101330.25;;;16.85;61.16
70909;BME280;58554;52.006;5.926;2022-08-30T05:07:16;101336.00;;;16.79;61.04
70909;BME280;58554;52.006;5.926;2022-08-30T05:09:42;101331.38;;;16.70;61.19
70909;BME280;58554;52.006;5.926;2022-08-30T05:12:09;101340.16;;;16.59;61.32
70909;BME280;58554;52.006;5.926;2022-08-30T05:14:35;101343.50;;;16.50;61.43
70909;BME280;58554;52.006;5.926;2022-08-30T05:17:02;101340.66;;;16.40;61.72
70909;BME280;58554;52.006;5.926;2022-08-30T05:19:30;101343.38;;;16.27;61.84
70909;BME280;58554;52.006;5.926;2022-08-30T05:21:59;101350.34;;;16.17;61.92
70909;BME280;58554;52.006;5.926;2022-08-30T05:24:25;101342.22;;;16.06;62.31
70909;BME280;58554;52.006;5.926;2022-08-30T05:26:52;101342.91;;;15.96;62.65
70909;BME280;58554;52.006;5.926;2022-08-30T05:29:18;101344.50;;;15.86;62.72
70909;BME280;58554;52.006;5.926;2022-08-30T05:31:45;101353.00;;;15.78;63.06
70909;BME280;58554;52.006;5.926;2022-08-30T05:34:11;101357.19;;;15.70;63.43
70909;BME280;58554;52.006;5.926;2022-08-30T05:36:38;101355.78;;;15.64;63.54
70909;BME280;58554;52.006;5.926;2022-08-30T05:39:08;101348.53;;;15.53;63.67
70909;BME280;58554;52.006;5.926;2022-08-30T05:41:36;101356.84;;;15.49;64.03
70909;BME280;58554;52.006;5.926;2022-08-30T05:44:05;101355.25;;;15.46;64.15
70909;BME280;58554;52.006;5.926;2022-08-30T05:46:35;101355.44;;;15.43;64.30
70909;BME280;58554;52.006;5.926;2022-08-30T05:49:04;101353.75;;;15.42;64.27
70909;BME280;58554;52.006;5.926;2022-08-30T05:51:34;101361.94;;;15.39;64.43
70909;BME280;58554;52.006;5.926;2022-08-30T05:54:02;101360.44;;;15.35;64.64
70909;BME280;58554;52.006;5.926;2022-08-30T05:56:34;101358.94;;;15.31;64.76
70909;BME280;58554;52.006;5.926;2022-08-30T05:59:04;101362.59;;;15.30;64.94
70909;BME280;58554;52.006;5.926;2022-08-30T06:01:34;101361.75;;;15.29;64.72
70909;BME280;58554;52.006;5.926;2022-08-30T06:04:04;101361.63;;;15.31;64.93
70909;BME280;58554;52.006;5.926;2022-08-30T06:06:35;101370.56;;;15.30;65.15
70909;BME280;58554;52.006;5.926;2022-08-30T06:09:04;101368.84;;;15.29;65.13
70909;BME280;58554;52.006;5.926;2022-08-30T06:11:35;101368.97;;;15.27;65.09
70909;BME280;58554;52.006;5.926;2022-08-30T06:14:03;101364.69;;;15.25;65.34
70909;BME280;58554;52.006;5.926;2022-08-30T06:16:31;101365.44;;;15.27;65.83
70909;BME280;58554;52.006;5.926;2022-08-30T06:18:58;101361.84;;;15.28;65.51
70909;BME280;58554;52.006;5.926;2022-08-30T06:21:27;101369.81;;;15.28;65.65
70909;BME280;58554;52.006;5.926;2022-08-30T06:23:56;101376.00;;;15.28;65.57
70909;BME280;58554;52.006;5.926;2022-08-30T06:26:24;101368.97;;;15.27;65.86
70909;BME280;58554;52.006;5.926;2022-08-30T06:28:55;101373.66;;;15.24;65.93
70909;BME280;58554;52.006;5.926;2022-08-30T06:31:24;101376.97;;;15.27;66.24
70909;BME280;58554;52.006;5.926;2022-08-30T06:33:52;101380.25;;;15.31;66.10
70909;BME280;58554;52.006;5.926;2022-08-30T06:36:23;101374.75;;;15.34;66.13
70909;BME280;58554;52.006;5.926;2022-08-30T06:38:51;101374.44;;;15.38;66.25
70909;BME280;58554;52.006;5.926;2022-08-30T06:41:21;101375.06;;;15.42;66.16
70909;BME280;58554;52.006;5.926;2022-08-30T06:43:49;101367.69;;;15.46;66.03
70909;BME280;58554;52.006;5.926;2022-08-30T06:46:21;101371.88;;;15.50;66.11
70909;BME280;58554;52.006;5.926;2022-08-30T06:48:50;101373.50;;;15.52;66.07
70909;BME280;58554;52.006;5.926;2022-08-30T06:51:19;101366.13;;;15.56;65.90
70909;BME280;58554;52.006;5.926;2022-08-30T06:53:46;101366.78;;;15.59;66.06
70909;BME280;58554;52.006;5.926;2022-08-30T06:56:14;101365.59;;;15.64;65.90
70909;BME280;58554;52.006;5.926;2022-08-30T06:58:42;101367.09;;;15.68;65.85
70909;BME280;58554;52.006;5.926;2022-08-30T07:01:11;101372.97;;;15.73;65.86
70909;BME280;58554;52.006;5.926;2022-08-30T07:03:41;101365.50;;;15.78;65.60
70909;BME280;58554;52.006;5.926;2022-08-30T07:06:09;101374.78;;;15.85;65.48
70909;BME280;58554;52.006;5.926;2022-08-30T07:08:36;101373.63;;;15.89;65.52
70909;BME280;58554;52.006;5.926;2022-08-30T07:11:04;101375.84;;;15.95;65.36
70909;BME280;58554;52.006;5.926;2022-08-30T07:13:32;101373.00;;;15.98;65.34
70909;BME280;58554;52.006;5.926;2022-08-30T07:15:59;101367.22;;;16.05;65.50
70909;BME280;58554;52.006;5.926;2022-08-30T07:18:26;101372.22;;;16.09;65.22
70909;BME280;58554;52.006;5.926;2022-08-30T07:20:55;101370.06;;;16.14;65.08
70909;BME280;58554;52.006;5.926;2022-08-30T07:23:23;101371.34;;;16.22;64.99
70909;BME280;58554;52.006;5.926;2022-08-30T07:25:50;101372.75;;;16.27;64.73
70909;BME280;58554;52.006;5.926;2022-08-30T07:28:16;101366.81;;;16.35;64.56
70909;BME280;58554;52.006;5.926;2022-08-30T07:30:43;101363.63;;;16.43;64.44
70909;BME280;58554;52.006;5.926;2022-08-30T07:33:09;101362.09;;;16.51;63.95
70909;BME280;58554;52.006;5.926;2022-08-30T07:35:36;101359.81;;;16.58;63.82
70909;BME280;58554;52.006;5.926;2022-08-30T07:38:05;101362.91;;;16.65;63.45
70909;BME280;58554;52.006;5.926;2022-08-30T07:40:31;101369.50;;;16.72;63.15
70909;BME280;58554;52.006;5.926;2022-08-30T07:42:58;101370.53;;;16.82;63.07
70909;BME280;58554;52.006;5.926;2022-08-30T07:45:24;101365.50;;;16.90;62.71
70909;BME280;58554;52.006;5.926;2022-08-30T07:47:51;101369.41;;;16.97;62.21
70909;BME280;58554;52.006;5.926;2022-08-30T07:50:17;101369.81;;;17.04;61.89
70909;BME280;58554;52.006;5.926;2022-08-30T07:52:44;101379.91;;;17.12;61.70
70909;BME280;58554;52.006;5.926;2022-08-30T07:55:13;101374.72;;;17.22;61.37
70909;BME280;58554;52.006;5.926;2022-08-30T07:57:40;101369.66;;;17.30;61.11
70909;BME280;58554;52.006;5.926;2022-08-30T08:00:08;101378.78;;;17.38;60.92
70909;BME280;58554;52.006;5.926;2022-08-30T08:02:35;101377.22;;;17.47;60.59
70909;BME280;58554;52.006;5.926;2022-08-30T08:05:02;101383.81;;;17.54;60.22
70909;BME280;58554;52.006;5.926;2022-08-30T08:07:29;101372.50;;;17.62;59.77
70909;BME280;58554;52.006;5.926;2022-08-30T08:09:56;101386.41;;;17.67;59.26
70909;BME280;58554;52.006;5.926;2022-08-30T08:12:26;101381.53;;;17.72;58.95
70909;BME280;58554;52.006;5.926;2022-08-30T08:14:53;101381.31;;;17.75;58.58
70909;BME280;58554;52.006;5.926;2022-08-30T08:17:19;101385.22;;;17.83;58.34
70909;BME280;58554;52.006;5.926;2022-08-30T08:19:46;101370.53;;;17.88;58.39
70909;BME280;58554;52.006;5.926;2022-08-30T08:22:12;101376.13;;;17.96;57.99
70909;BME280;58554;52.006;5.926;2022-08-30T08:24:39;101371.00;;;18.05;57.50
70909;BME280;58554;52.006;5.926;2022-08-30T08:27:05;101380.97;;;18.14;56.89
70909;BME280;58554;52.006;5.926;2022-08-30T08:29:34;101376.84;;;18.21;56.52
70909;BME280;58554;52.006;5.926;2022-08-30T08:32:01;101376.47;;;18.26;56.56
70909;BME280;58554;52.006;5.926;2022-08-30T08:34:28;101370.50;;;18.33;56.50
70909;BME280;58554;52.006;5.926;2022-08-30T08:36:55;101374.28;;;18.42;55.36
70909;BME280;58554;52.006;5.926;2022-08-30T08:39:21;101380.94;;;18.48;55.15
70909;BME280;58554;52.006;5.926;2022-08-30T08:41:58;101383.84;;;18.56;54.51
70909;BME280;58554;52.006;5.926;2022-08-30T08:44:46;101382.38;;;18.63;54.25
70909;BME280;58554;52.006;5.926;2022-08-30T08:47:24;101385.31;;;18.71;53.88
70909;BME280;58554;52.006;5.926;2022-08-30T08:49:58;101385.53;;;18.79;54.10
70909;BME280;58554;52.006;5.926;2022-08-30T08:52:44;101385.88;;;18.86;53.36
70909;BME280;58554;52.006;5.926;2022-08-30T08:55:19;101387.31;;;18.90;53.62
70909;BME280;58554;52.006;5.926;2022-08-30T08:57:49;101375.38;;;18.94;53.30
70909;BME280;58554;52.006;5.926;2022-08-30T09:00:18;101377.41;;;19.02;52.92
70909;BME280;58554;52.006;5.926;2022-08-30T09:02:47;101389.44;;;19.08;52.93
70909;BME280;58554;52.006;5.926;2022-08-30T09:05:25;101384.16;;;19.17;52.98
70909;BME280;58554;52.006;5.926;2022-08-30T09:08:00;101386.94;;;19.27;52.70
70909;BME280;58554;52.006;5.926;2022-08-30T09:10:32;101384.59;;;19.34;52.24
70909;BME280;58554;52.006;5.926;2022-08-30T09:13:00;101383.34;;;19.38;51.94
70909;BME280;58554;52.006;5.926;2022-08-30T09:15:32;101382.94;;;19.42;51.98
70909;BME280;58554;52.006;5.926;2022-08-30T09:18:01;101391.31;;;19.49;51.93
70909;BME280;58554;52.006;5.926;2022-08-30T09:20:32;101382.03;;;19.53;52.00
70909;BME280;58554;52.006;5.926;2022-08-30T09:23:19;101389.94;;;19.55;50.51
70909;BME280;58554;52.006;5.926;2022-08-30T09:25:52;101385.44;;;19.55;50.96
70909;BME280;58554;52.006;5.926;2022-08-30T09:28:22;101388.81;;;19.57;50.80
70909;BME280;58554;52.006;5.926;2022-08-30T09:31:02;101385.78;;;19.62;50.16
70909;BME280;58554;52.006;5.926;2022-08-30T09:33:32;101391.63;;;19.67;50.61
70909;BME280;58554;52.006;5.926;2022-08-30T09:36:12;101392.06;;;19.72;50.50
70909;BME280;58554;52.006;5.926;2022-08-30T09:38:56;101388.25;;;19.75;50.31
70909;BME280;58554;52.006;5.926;2022-08-30T09:41:29;101386.28;;;19.77;50.38
70909;BME280;58554;52.006;5.926;2022-08-30T09:44:06;101382.50;;;19.79;50.31
70909;BME280;58554;52.006;5.926;2022-08-30T09:46:45;101390.16;;;19.84;49.63
70909;BME280;58554;52.006;5.926;2022-08-30T09:49:28;101389.75;;;19.89;49.47
70909;BME280;58554;52.006;5.926;2022-08-30T09:52:06;101383.97;;;19.93;49.67
70909;BME280;58554;52.006;5.926;2022-08-30T09:54:48;101395.03;;;20.00;49.68
70909;BME280;58554;52.006;5.926;2022-08-30T09:57:46;101391.78;;;20.06;49.59
70909;BME280;58554;52.006;5.926;2022-08-30T10:00:23;101389.44;;;20.13;49.33
70909;BME280;58554;52.006;5.926;2022-08-30T10:03:05;101398.66;;;20.20;49.07
70909;BME280;58554;52.006;5.926;2022-08-30T10:05:51;101370.41;;;20.26;49.12
70909;BME280;58554;52.006;5.926;2022-08-30T10:08:36;101383.84;;;20.35;48.69
70909;BME280;58554;52.006;5.926;2022-08-30T10:11:18;101383.91;;;20.45;48.36
70909;BME280;58554;52.006;5.926;2022-08-30T10:14:05;101386.91;;;20.52;47.79
70909;BME280;58554;52.006;5.926;2022-08-30T10:16:52;101389.91;;;20.58;48.00
70909;BME280;58554;52.006;5.926;2022-08-30T10:19:47;101375.91;;;20.65;47.20
70909;BME280;58554;52.006;5.926;2022-08-30T10:22:27;101378.19;;;20.69;47.70
70909;BME280;58554;52.006;5.926;2022-08-30T10:25:05;101380.16;;;20.77;47.19
70909;BME280;58554;52.006;5.926;2022-08-30T10:27:40;101378.03;;;20.80;47.19
70909;BME280;58554;52.006;5.926;2022-08-30T10:30:13;101378.47;;;20.86;47.07
70909;BME280;58554;52.006;5.926;2022-08-30T10:32:44;101371.84;;;20.90;46.77
70909;BME280;58554;52.006;5.926;2022-08-30T10:35:21;101378.75;;;20.92;46.56
70909;BME280;58554;52.006;5.926;2022-08-30T10:37:52;101368.72;;;20.94;46.44
70909;BME280;58554;52.006;5.926;2022-08-30T10:40:29;101365.91;;;20.96;46.09
70909;BME280;58554;52.006;5.926;2022-08-30T10:43:01;101371.81;;;20.99;45.98
70909;BME280;58554;52.006;5.926;2022-08-30T10:45:36;101371.25;;;21.06;46.09
70909;BME280;58554;52.006;5.926;2022-08-30T10:48:12;101372.53;;;21.11;46.29
70909;BME280;58554;52.006;5.926;2022-08-30T10:50:50;101369.28;;;21.17;45.82
70909;BME280;58554;52.006;5.926;2022-08-30T10:53:27;101369.16;;;21.19;45.54
70909;BME280;58554;52.006;5.926;2022-08-30T10:56:06;101367.31;;;21.19;45.29
70909;BME280;58554;52.006;5.926;2022-08-30T10:58:36;101361.91;;;21.19;45.38
70909;BME280;58554;52.006;5.926;2022-08-30T11:01:13;101357.38;;;21.20;45.44
70909;BME280;58554;52.006;5.926;2022-08-30T11:04:19;101353.44;;;21.24;45.06
70909;BME280;58554;52.006;5.926;2022-08-30T11:07:15;101351.19;;;21.29;45.33
70909;BME280;58554;52.006;5.926;2022-08-30T11:10:05;101355.97;;;21.35;44.92
70909;BME280;58554;52.006;5.926;2022-08-30T11:12:52;101357.38;;;21.39;45.27
70909;BME280;58554;52.006;5.926;2022-08-30T11:15:26;101355.38;;;21.41;44.97
70909;BME280;58554;52.006;5.926;2022-08-30T11:17:57;101352.44;;;21.45;44.85
70909;BME280;58554;52.006;5.926;2022-08-30T11:20:34;101348.72;;;21.46;44.60
70909;BME280;58554;52.006;5.926;2022-08-30T11:23:18;101359.34;;;21.47;44.36
70909;BME280;58554;52.006;5.926;2022-08-30T11:25:57;101354.69;;;21.49;44.81
70909;BME280;58554;52.006;5.926;2022-08-30T11:31:32;101356.66;;;21.57;44.52
70909;BME280;58554;52.006;5.926;2022-08-30T11:34:07;101353.53;;;21.61;44.46
70909;BME280;58554;52.006;5.926;2022-08-30T11:36:59;101355.06;;;21.64;43.65
70909;BME280;58554;52.006;5.926;2022-08-30T11:40:00;101340.31;;;21.68;43.50
70909;BME280;58554;52.006;5.926;2022-08-30T11:42:38;101354.34;;;21.72;43.55
70909;BME280;58554;52.006;5.926;2022-08-30T11:48:41;101350.34;;;21.86;43.19
70909;BME280;58554;52.006;5.926;2022-08-30T11:51:28;101333.59;;;21.92;42.90
70909;BME280;58554;52.006;5.926;2022-08-30T11:54:14;101334.69;;;21.99;42.93
70909;BME280;58554;52.006;5.926;2022-08-30T11:56:58;101337.66;;;22.06;42.96
70909;BME280;58554;52.006;5.926;2022-08-30T11:59:41;101328.00;;;22.13;42.64
70909;BME280;58554;52.006;5.926;2022-08-30T12:02:43;101331.63;;;22.21;42.17
70909;BME280;58554;52.006;5.926;2022-08-30T12:05:46;101326.78;;;22.25;42.10
70909;BME280;58554;52.006;5.926;2022-08-30T12:08:41;101324.47;;;22.30;41.99
70909;BME280;58554;52.006;5.926;2022-08-30T12:14:39;101320.47;;;22.34;42.24
70909;BME280;58554;52.006;5.926;2022-08-30T12:17:15;101321.88;;;22.38;42.56
70909;BME280;58554;52.006;5.926;2022-08-30T12:19:47;101320.44;;;22.44;42.13
70909;BME280;58554;52.006;5.926;2022-08-30T12:22:16;101324.50;;;22.48;42.24
70909;BME280;58554;52.006;5.926;2022-08-30T12:24:47;101312.44;;;22.52;42.23
70909;BME280;58554;52.006;5.926;2022-08-30T12:27:24;101325.13;;;22.60;41.60
70909;BME280;58554;52.006;5.926;2022-08-30T12:29:55;101313.03;;;22.64;41.59
70909;BME280;58554;52.006;5.926;2022-08-30T12:32:23;101317.13;;;22.68;41.31
70909;BME280;58554;52.006;5.926;2022-08-30T12:34:52;101312.28;;;22.72;41.09
70909;BME280;58554;52.006;5.926;2022-08-30T12:37:23;101306.56;;;22.75;41.09
70909;BME280;58554;52.006;5.926;2022-08-30T12:40:01;101317.09;;;22.78;40.45
70909;BME280;58554;52.006;5.926;2022-08-30T12:42:35;101311.53;;;22.79;40.74
70909;BME280;58554;52.006;5.926;2022-08-30T12:45:06;101310.38;;;22.82;40.90
70909;BME280;58554;52.006;5.926;2022-08-30T12:47:40;101308.22;;;22.86;40.71
70909;BME280;58554;52.006;5.926;2022-08-30T12:50:17;101305.06;;;22.90;40.34
70909;BME280;58554;52.006;5.926;2022-08-30T12:52:47;101310.66;;;22.97;40.61
70909;BME280;58554;52.006;5.926;2022-08-30T12:55:25;101304.78;;;23.01;40.08
70909;BME280;58554;52.006;5.926;2022-08-30T12:58:00;101295.38;;;23.06;40.21
70909;BME280;58554;52.006;5.926;2022-08-30T13:00:31;101302.03;;;23.11;40.34
70909;BME280;58554;52.006;5.926;2022-08-30T13:03:00;101301.69;;;23.14;39.92
70909;BME280;58554;52.006;5.926;2022-08-30T13:05:41;101299.69;;;23.16;39.80
70909;BME280;58554;52.006;5.926;2022-08-30T13:08:14;101295.66;;;23.20;39.76
70909;BME280;58554;52.006;5.926;2022-08-30T13:10:52;101291.50;;;23.26;39.66
70909;BME280;58554;52.006;5.926;2022-08-30T13:13:36;101283.75;;;23.31;39.40
70909;BME280;58554;52.006;5.926;2022-08-30T13:16:20;101285.81;;;23.37;39.43
70909;BME280;58554;52.006;5.926;2022-08-30T13:18:51;101280.66;;;23.44;39.25
70909;BME280;58554;52.006;5.926;2022-08-30T13:21:25;101287.13;;;23.51;39.10